createdAt,value
2022-08-05T00:00:16.193Z,85.69
2022-08-05T00:02:50.882Z,86.55
2022-08-05T00:06:02.555Z,87.40
2022-08-05T00:08:33.036Z,87.40
2022-08-05T00:11:00.998Z,87.63
2022-08-05T00:13:38.684Z,87.74
2022-08-05T00:16:12.285Z,87.63
2022-08-05T00:18:42.099Z,87.54
2022-08-05T00:21:10.300Z,87.33
2022-08-05T00:23:45.862Z,87.04
2022-08-05T00:26:16.942Z,87.04
2022-08-05T00:28:45.756Z,86.78
2022-08-05T00:31:13.884Z,86.51
2022-08-05T00:34:53.219Z,86.97
2022-08-05T00:37:10.601Z,87.33
2022-08-05T00:39:17.090Z,86.88
2022-08-05T00:41:55.314Z,87.00
2022-08-05T00:44:30.921Z,87.41
2022-08-05T00:47:03.684Z,88.00
2022-08-05T00:49:49.352Z,87.74
2022-08-05T00:52:28.350Z,87.88
2022-08-05T00:54:56.959Z,87.69
2022-08-05T00:57:31.838Z,88.55
2022-08-05T01:00:15.526Z,89.13
2022-08-05T01:02:44.876Z,89.40
2022-08-05T01:05:13.116Z,89.60
2022-08-05T01:08:40.494Z,89.56
2022-08-05T01:10:32.894Z,89.75
2022-08-05T01:13:12.740Z,89.39
2022-08-05T01:15:47.794Z,89.27
2022-08-05T01:18:20.468Z,90.09
2022-08-05T01:20:55.268Z,89.58
2022-08-05T01:23:35.778Z,89.73
2022-08-05T01:26:13.757Z,89.50
2022-08-05T01:28:46.525Z,89.84
2022-08-05T01:31:20.863Z,89.86
2022-08-05T01:33:51.994Z,89.62
2022-08-05T01:36:28.448Z,89.99
2022-08-05T01:38:56.843Z,90.56
2022-08-05T01:41:31.560Z,90.90
2022-08-05T01:44:02.839Z,90.37
2022-08-05T01:46:42.019Z,90.36
2022-08-05T01:49:24.011Z,90.66
2022-08-05T01:51:56.005Z,91.66
2022-08-05T01:54:27.324Z,93.51
2022-08-05T01:58:09.552Z,92.93
2022-08-05T01:59:48.012Z,91.54
2022-08-05T02:02:16.610Z,91.52
2022-08-05T02:04:46.295Z,91.33
2022-08-05T02:07:21.675Z,92.53
2022-08-05T02:09:50.414Z,93.41
2022-08-05T02:12:23.656Z,94.21
2022-08-05T02:15:03.160Z,94.74
2022-08-05T02:18:32.446Z,95.87
2022-08-05T02:20:23.799Z,95.96
2022-08-05T02:22:58.158Z,95.18
2022-08-05T02:25:33.415Z,94.87
2022-08-05T02:28:08.582Z,94.16
2022-08-05T02:30:51.730Z,93.66
2022-08-05T02:33:24.161Z,93.01
2022-08-05T02:35:58.879Z,92.86
2022-08-05T02:38:35.210Z,93.21
2022-08-05T02:41:06.362Z,93.53
2022-08-05T02:44:06.320Z,92.85
2022-08-05T02:46:35.469Z,92.79
2022-08-05T02:49:03.939Z,92.61
2022-08-05T02:52:02.745Z,92.83
2022-08-05T02:54:35.026Z,92.61
2022-08-05T02:57:09.922Z,92.28
2022-08-05T02:59:50.169Z,92.20
2022-08-05T03:02:21.429Z,93.52
2022-08-05T03:04:53.310Z,95.34
2022-08-05T03:08:00.612Z,98.21
2022-08-05T03:10:10.632Z,97.97
2022-08-05T03:12:41.217Z,97.67
2022-08-05T03:15:12.247Z,97.81
2022-08-05T03:17:42.206Z,98.24
2022-08-05T03:20:13.318Z,99.33
2022-08-05T03:22:44.213Z,100.00
2022-08-05T03:26:03.513Z,99.74
2022-08-05T03:28:08.683Z,100.00
2022-08-05T03:30:38.354Z,100.00
2022-08-05T03:33:10.504Z,100.00
2022-08-05T03:35:41.270Z,99.72
2022-08-05T03:38:11.480Z,99.96
2022-08-05T03:40:41.393Z,100.00
2022-08-05T03:43:59.273Z,100.00
2022-08-05T03:46:01.438Z,100.00
2022-08-05T03:48:35.637Z,100.00
2022-08-05T03:52:50.494Z,100.00
2022-08-05T03:55:50.588Z,99.76
2022-08-05T03:56:50.229Z,99.39
2022-08-05T03:59:24.566Z,99.07
2022-08-05T04:01:53.124Z,98.42
2022-08-05T04:04:28.183Z,98.05
2022-08-05T04:06:56.131Z,98.04
2022-08-05T04:09:26.285Z,97.49
2022-08-05T04:11:56.698Z,97.42
2022-08-05T04:14:30.495Z,96.92
2022-08-05T04:17:00.102Z,96.37
2022-08-05T04:19:30.684Z,95.87
2022-08-05T04:22:10.358Z,95.67
2022-08-05T04:24:44.448Z,95.38
2022-08-05T04:27:15.298Z,94.98
2022-08-05T04:29:44.038Z,94.62
2022-08-05T04:32:13.015Z,94.26
2022-08-05T04:34:43.308Z,94.10
2022-08-05T04:37:11.356Z,94.37
2022-08-05T04:39:40.078Z,93.65
2022-08-05T04:42:09.097Z,93.25
2022-08-05T04:44:36.929Z,92.75
2022-08-05T04:47:09.913Z,92.58
2022-08-05T04:50:02.685Z,92.15
2022-08-05T04:52:28.359Z,91.49
2022-08-05T04:54:57.385Z,91.21
2022-08-05T04:57:28.773Z,90.40
2022-08-05T04:59:58.751Z,90.40
2022-08-05T05:02:41.182Z,90.26
2022-08-05T05:05:26.117Z,89.71
2022-08-05T05:08:01.573Z,88.93
2022-08-05T05:10:30.347Z,88.69
2022-08-05T05:12:58.522Z,88.39
2022-08-05T05:15:59.317Z,87.44
2022-08-05T05:18:15.228Z,87.78
2022-08-05T05:20:56.525Z,86.95
2022-08-05T05:23:27.767Z,86.72
2022-08-05T05:26:15.478Z,86.55
2022-08-05T05:28:45.125Z,85.62
2022-08-05T05:31:13.447Z,85.19
2022-08-05T05:33:59.462Z,85.30
2022-08-05T05:36:28.621Z,85.31
2022-08-05T05:38:59.355Z,84.92
2022-08-05T05:41:40.459Z,84.01
2022-08-05T05:44:36.922Z,84.53
2022-08-05T05:46:57.866Z,82.86
2022-08-05T05:49:25.931Z,82.49
2022-08-05T05:51:53.697Z,82.20
2022-08-05T05:54:49.789Z,81.21
2022-08-05T05:57:13.829Z,80.50
2022-08-05T05:59:46.807Z,81.50
2022-08-05T06:02:16.595Z,80.35
2022-08-05T06:04:47.546Z,79.47
2022-08-05T06:07:16.990Z,80.67
2022-08-05T06:10:04.550Z,79.04
2022-08-05T06:12:34.805Z,78.75
2022-08-05T06:15:16.439Z,78.97
2022-08-05T06:17:53.503Z,77.71
2022-08-05T06:20:23.020Z,77.81
2022-08-05T06:22:50.924Z,78.70
2022-08-05T06:25:24.558Z,77.84
2022-08-05T06:28:11.505Z,77.70
2022-08-05T06:30:48.361Z,76.01
2022-08-05T06:33:19.260Z,75.01
2022-08-05T06:36:07.719Z,74.77
2022-08-05T06:38:39.527Z,73.44
2022-08-05T06:41:16.246Z,73.32
2022-08-05T06:43:58.840Z,72.40
2022-08-05T06:46:29.698Z,72.43
2022-08-05T06:48:59.277Z,73.43
2022-08-05T06:51:30.014Z,71.60
2022-08-05T06:53:59.069Z,70.43
2022-08-05T06:56:28.235Z,71.10
2022-08-05T06:58:56.096Z,69.47
2022-08-05T07:01:27.623Z,70.07
2022-08-05T07:04:00.548Z,70.41
2022-08-05T07:06:28.854Z,69.31
2022-08-05T07:08:56.553Z,69.22
2022-08-05T07:11:30.878Z,70.14
2022-08-05T07:14:20.492Z,69.08
2022-08-05T07:18:08.338Z,70.44
2022-08-05T07:22:37.136Z,68.02
2022-08-05T07:25:23.058Z,67.77
2022-08-05T07:28:02.343Z,64.49
2022-08-05T07:30:38.339Z,64.81
2022-08-05T07:33:09.206Z,66.32
2022-08-05T07:36:04.594Z,65.06
2022-08-05T07:38:34.237Z,63.40
2022-08-05T07:42:07.128Z,62.77
2022-08-05T07:43:56.172Z,62.69
2022-08-05T07:46:26.058Z,62.50
2022-08-05T07:49:03.506Z,63.41
2022-08-05T07:51:40.611Z,62.27
2022-08-05T07:54:10.532Z,63.12
2022-08-05T07:57:02.822Z,61.65
2022-08-05T07:59:38.341Z,61.44
2022-08-05T08:02:15.492Z,61.51
2022-08-05T08:04:46.097Z,59.70
2022-08-05T08:07:14.173Z,60.38
2022-08-05T08:09:44.603Z,60.49
2022-08-05T08:12:35.237Z,60.47
2022-08-05T08:15:04.485Z,59.53
2022-08-05T08:17:32.898Z,60.78
2022-08-05T08:20:21.617Z,60.28
2022-08-05T08:22:52.735Z,59.50
2022-08-05T08:25:26.794Z,58.94
2022-08-05T08:28:17.995Z,58.03
2022-08-05T08:30:49.836Z,58.90
2022-08-05T08:33:19.101Z,57.48
2022-08-05T08:35:53.078Z,57.56
2022-08-05T08:38:35.950Z,57.33
2022-08-05T08:41:08.276Z,58.00
2022-08-05T08:45:16.345Z,57.89
2022-08-05T08:46:28.011Z,56.90
2022-08-05T08:49:07.841Z,57.02
2022-08-05T08:52:03.337Z,55.34
2022-08-05T08:54:36.275Z,55.97
2022-08-05T08:57:11.474Z,56.79
2022-08-05T08:59:41.873Z,56.34
2022-08-05T09:02:19.414Z,55.67
2022-08-05T09:05:16.161Z,54.97
2022-08-05T09:07:39.996Z,54.60
2022-08-05T09:10:27.743Z,54.92
2022-08-05T09:13:04.463Z,54.55
2022-08-05T09:15:36.775Z,55.42
2022-08-05T09:18:08.807Z,54.34
2022-08-05T09:20:37.653Z,56.64
2022-08-05T09:23:19.850Z,55.07
2022-08-05T09:26:01.205Z,54.71
2022-08-05T09:28:33.784Z,53.50
2022-08-05T09:31:18.198Z,53.75
2022-08-05T09:33:55.355Z,54.40
2022-08-05T09:36:27.934Z,54.07
2022-08-05T09:39:18.575Z,54.20
2022-08-05T09:41:58.443Z,55.06
2022-08-05T09:44:37.800Z,54.71
2022-08-05T09:47:12.423Z,52.90
2022-08-05T09:50:01.336Z,53.92
2022-08-05T09:52:32.127Z,52.31
2022-08-05T09:55:55.211Z,52.19
2022-08-05T09:57:49.584Z,51.80
2022-08-05T10:00:25.442Z,51.43
2022-08-05T10:02:54.813Z,50.81
2022-08-05T10:05:29.067Z,49.61
2022-08-05T10:08:34.603Z,50.05
2022-08-05T10:10:54.252Z,50.74
2022-08-05T10:13:43.872Z,50.32
2022-08-05T10:16:30.996Z,50.02
2022-08-05T10:19:00.327Z,49.47
2022-08-05T10:21:35.393Z,47.68
2022-08-05T10:24:10.702Z,48.21
2022-08-05T10:26:51.358Z,47.53
2022-08-05T10:29:24.122Z,47.93
2022-08-05T10:32:52.051Z,49.50
2022-08-05T10:35:00.813Z,48.51
2022-08-05T10:37:40.252Z,50.02
2022-08-05T10:40:20.424Z,49.20
2022-08-05T10:42:59.841Z,47.18
2022-08-05T10:45:39.901Z,48.11
2022-08-05T10:48:38.390Z,46.71
2022-08-05T10:51:22.891Z,46.06
2022-08-05T10:54:00.964Z,46.64
2022-08-05T10:56:31.807Z,46.60
2022-08-05T10:59:12.465Z,44.92
2022-08-05T11:02:08.716Z,45.11
2022-08-05T11:04:49.123Z,46.65
2022-08-05T11:07:33.247Z,42.94
2022-08-05T11:10:22.686Z,43.75
2022-08-05T11:12:56.583Z,46.30
2022-08-05T11:16:01.194Z,41.70
2022-08-05T11:18:29.713Z,41.97
2022-08-05T11:21:02.216Z,42.60
2022-08-05T11:24:04.923Z,43.10
2022-08-05T11:26:38.875Z,43.25
2022-08-05T11:29:13.537Z,42.56
2022-08-05T11:31:58.536Z,42.79
2022-08-05T11:34:52.187Z,45.62
2022-08-05T11:38:31.028Z,44.31
2022-08-05T11:41:14.019Z,41.60
2022-08-05T11:43:58.605Z,40.54
2022-08-05T11:47:09.522Z,41.11
2022-08-05T11:49:54.453Z,41.78
2022-08-05T11:52:28.994Z,40.62
2022-08-05T11:54:58.268Z,41.91
2022-08-05T11:57:30.697Z,42.13
2022-08-05T12:00:09.966Z,42.39
2022-08-05T12:02:40.184Z,41.75
2022-08-05T12:05:18.252Z,41.14
2022-08-05T12:08:07.861Z,41.30
2022-08-05T12:10:45.584Z,39.98
2022-08-05T12:13:47.578Z,39.66
2022-08-05T12:16:15.098Z,37.94
2022-08-05T12:18:49.608Z,38.70
2022-08-05T12:21:24.027Z,38.62
2022-08-05T12:24:05.130Z,39.32
2022-08-05T12:26:35.539Z,37.12
2022-08-05T12:29:09.485Z,37.64
2022-08-05T12:31:53.094Z,37.22
2022-08-05T12:34:24.065Z,35.53
2022-08-05T12:36:54.539Z,37.28
2022-08-05T12:39:28.106Z,38.02
2022-08-05T12:42:09.917Z,39.60
2022-08-05T12:44:43.236Z,37.27
2022-08-05T12:47:17.082Z,36.59
2022-08-05T12:50:02.338Z,37.14
2022-08-05T12:52:39.315Z,37.52
2022-08-05T12:55:22.108Z,36.24
2022-08-05T12:58:50.579Z,34.75
2022-08-05T13:02:04.441Z,35.62
2022-08-05T13:03:33.146Z,35.18
2022-08-05T13:06:01.428Z,35.78
2022-08-05T13:08:30.322Z,33.62
2022-08-05T13:11:01.324Z,32.46
2022-08-05T13:14:06.171Z,33.83
2022-08-05T13:16:17.392Z,35.12
2022-08-05T13:18:57.702Z,33.62
2022-08-05T13:21:28.396Z,34.79
2022-08-05T13:24:08.958Z,33.66
2022-08-05T13:26:37.299Z,34.92
2022-08-05T13:29:05.582Z,33.04
2022-08-05T13:32:03.846Z,32.65
2022-08-05T13:34:26.056Z,32.54
2022-08-05T13:36:54.411Z,31.95
2022-08-05T13:40:13.099Z,33.30
2022-08-05T13:42:14.670Z,32.77
2022-08-05T13:44:45.307Z,31.86
2022-08-05T13:48:08.325Z,32.40
2022-08-05T13:50:09.517Z,31.44
2022-08-05T13:52:40.207Z,30.89
2022-08-05T13:55:11.907Z,31.63
2022-08-05T13:57:59.578Z,31.04
2022-08-05T14:00:28.046Z,31.77
2022-08-05T14:02:57.380Z,31.59
2022-08-05T14:05:48.574Z,30.77
2022-08-05T14:08:21.462Z,29.86
2022-08-05T14:11:03.249Z,30.51
2022-08-05T14:13:43.747Z,30.63
2022-08-05T14:16:17.263Z,30.56
2022-08-05T14:18:47.072Z,29.93
2022-08-05T14:22:07.310Z,31.39
2022-08-05T14:24:04.987Z,31.30
2022-08-05T14:26:38.696Z,30.63
2022-08-05T14:29:16.236Z,30.86
2022-08-05T14:32:03.085Z,30.97
2022-08-05T14:34:35.353Z,31.45
2022-08-05T14:37:05.984Z,31.24
2022-08-05T14:39:50.230Z,29.82
2022-08-05T14:42:22.943Z,29.96
2022-08-05T14:44:52.956Z,31.15
2022-08-05T14:48:03.774Z,30.25
2022-08-05T14:50:18.360Z,28.78
2022-08-05T14:52:58.285Z,29.13
2022-08-05T14:55:39.315Z,29.02
2022-08-05T14:58:11.915Z,28.69
2022-08-05T15:00:58.430Z,28.43
2022-08-05T15:03:33.788Z,28.84
2022-08-05T15:06:07.576Z,29.18
2022-08-05T15:09:01.423Z,28.48
2022-08-05T15:11:50.874Z,28.13
2022-08-05T15:14:34.222Z,27.00
2022-08-05T15:17:05.354Z,28.48
2022-08-05T15:19:37.841Z,27.89
2022-08-05T15:22:08.746Z,27.42
2022-08-05T15:24:39.686Z,27.69
2022-08-05T15:27:09.116Z,28.08
2022-08-05T15:29:41.669Z,28.70
2022-08-05T15:32:10.588Z,28.68
2022-08-05T15:34:38.429Z,29.12
2022-08-05T15:37:24.420Z,29.54
2022-08-05T15:41:01.708Z,29.60
2022-08-05T15:42:53.690Z,29.68
2022-08-05T15:45:38.797Z,28.80
2022-08-05T15:48:07.089Z,28.29
2022-08-05T15:50:35.212Z,28.24
2022-08-05T15:53:05.818Z,28.45
2022-08-05T15:56:04.129Z,28.84
2022-08-05T15:58:26.300Z,28.13
2022-08-05T16:01:11.594Z,29.93
2022-08-05T16:03:42.451Z,30.04
2022-08-05T16:06:11.371Z,29.04
2022-08-05T16:08:40.100Z,29.22
2022-08-05T16:11:10.643Z,29.18
2022-08-05T16:13:38.643Z,29.96
2022-08-05T16:16:07.528Z,30.52
2022-08-05T16:18:51.951Z,29.23
2022-08-05T16:21:59.347Z,29.54
2022-08-05T16:24:12.763Z,29.88
2022-08-05T16:27:02.136Z,30.21
2022-08-05T16:29:31.367Z,30.35
2022-08-05T16:32:06.411Z,30.41
2022-08-05T16:34:34.497Z,30.21
2022-08-05T16:37:02.304Z,30.32
2022-08-05T16:40:04.841Z,30.71
2022-08-05T16:42:36.818Z,31.26
2022-08-05T16:45:06.206Z,30.10
2022-08-05T16:47:57.329Z,30.28
2022-08-05T16:50:27.619Z,30.15
2022-08-05T16:52:56.573Z,30.60
2022-08-05T16:55:24.648Z,30.93
2022-08-05T16:58:00.194Z,31.28
2022-08-05T17:00:34.814Z,31.39
2022-08-05T17:03:15.290Z,32.29
2022-08-05T17:05:53.598Z,32.18
2022-08-05T17:08:36.227Z,32.49
2022-08-05T17:11:12.768Z,33.78
2022-08-05T17:13:46.593Z,34.39
2022-08-05T17:16:35.869Z,34.25
2022-08-05T17:19:02.670Z,34.77
2022-08-05T17:21:35.465Z,34.92
2022-08-05T17:24:19.600Z,35.43
2022-08-05T17:26:52.712Z,36.83
2022-08-05T17:29:33.468Z,36.80
2022-08-05T17:32:08.633Z,37.19
2022-08-05T17:34:40.140Z,38.76
2022-08-05T17:37:16.943Z,38.63
2022-08-05T17:39:59.970Z,39.61
2022-08-05T17:42:32.265Z,39.91
2022-08-05T17:45:09.807Z,40.21
2022-08-05T17:47:51.339Z,40.87
2022-08-05T17:50:22.801Z,40.92
2022-08-05T17:52:58.903Z,42.40
2022-08-05T17:55:27.310Z,41.91
2022-08-05T17:58:02.182Z,43.92
2022-08-05T18:00:32.776Z,43.88
2022-08-05T18:03:00.711Z,43.26
2022-08-05T18:05:28.528Z,43.55
2022-08-05T18:08:03.722Z,43.96
2022-08-05T18:10:33.628Z,45.89
2022-08-05T18:13:01.897Z,47.62
2022-08-05T18:15:34.288Z,48.00
2022-08-05T18:18:05.763Z,49.35
2022-08-05T18:20:39.246Z,49.70
2022-08-05T18:23:11.442Z,51.18
2022-08-05T18:25:44.944Z,50.89
2022-08-05T18:28:16.493Z,52.90
2022-08-05T18:30:45.927Z,55.39
2022-08-05T18:33:23.157Z,55.08
2022-08-05T18:36:03.249Z,55.40
2022-08-05T18:38:32.858Z,56.51
2022-08-05T18:41:55.076Z,57.59
2022-08-05T18:43:48.739Z,56.43
2022-08-05T18:46:20.097Z,57.70
2022-08-05T18:48:52.115Z,57.92
2022-08-05T18:52:04.148Z,58.96
2022-08-05T18:54:25.862Z,59.10
2022-08-05T18:56:55.386Z,60.55
2022-08-05T18:59:44.408Z,60.74
2022-08-05T19:02:27.985Z,60.39
2022-08-05T19:05:02.932Z,61.79
2022-08-05T19:07:46.151Z,63.54
2022-08-05T19:10:15.154Z,63.86
2022-08-05T19:12:43.461Z,63.31
2022-08-05T19:15:56.852Z,63.37
2022-08-05T19:18:09.365Z,64.24
2022-08-05T19:20:41.367Z,66.04
2022-08-05T19:23:22.482Z,65.59
2022-08-05T19:26:01.898Z,65.62
2022-08-05T19:28:30.999Z,65.59
2022-08-05T19:31:01.053Z,65.13
2022-08-05T19:33:36.298Z,65.72
2022-08-05T19:36:06.603Z,67.24
2022-08-05T19:38:35.630Z,67.33
2022-08-05T19:41:07.251Z,66.84
2022-08-05T19:44:05.295Z,67.00
2022-08-05T19:46:29.130Z,68.27
2022-08-05T19:49:01.071Z,68.62
2022-08-05T19:52:09.100Z,69.46
2022-08-05T19:54:25.579Z,69.52
2022-08-05T19:56:59.697Z,69.06
2022-08-05T20:00:00.489Z,69.44
2022-08-05T20:02:19.384Z,69.91
2022-08-05T20:04:48.777Z,69.25
2022-08-05T20:07:46.721Z,69.65
2022-08-05T20:10:14.113Z,70.45
2022-08-05T20:12:48.371Z,70.63
2022-08-05T20:15:48.516Z,71.21
2022-08-05T20:18:33.606Z,72.11
2022-08-05T20:21:00.146Z,72.27
2022-08-05T20:23:40.206Z,72.13
2022-08-05T20:26:17.369Z,72.73
2022-08-05T20:28:46.301Z,73.06
2022-08-05T20:31:16.606Z,73.58
2022-08-05T20:33:44.997Z,74.02
2022-08-05T20:36:16.387Z,74.73
2022-08-05T20:38:54.114Z,73.86
2022-08-05T20:41:26.947Z,71.92
2022-08-05T20:43:58.812Z,73.20
2022-08-05T20:46:30.665Z,73.05
2022-08-05T20:48:59.664Z,72.73
2022-08-05T20:51:29.052Z,72.31
2022-08-05T20:53:57.268Z,70.65
2022-08-05T20:56:34.070Z,70.28
2022-08-05T20:59:14.168Z,70.29
2022-08-05T21:01:47.722Z,70.11
2022-08-05T21:04:19.080Z,71.44
2022-08-05T21:06:49.187Z,73.44
2022-08-05T21:09:19.463Z,73.49
2022-08-05T21:12:10.553Z,72.85
2022-08-05T21:14:35.897Z,71.59
2022-08-05T21:17:05.758Z,72.33
2022-08-05T21:19:46.465Z,73.60
2022-08-05T21:22:17.681Z,73.07
2022-08-05T21:24:51.672Z,72.14
2022-08-05T21:27:20.679Z,72.50
2022-08-05T21:29:56.041Z,73.43
2022-08-05T21:32:27.129Z,75.21
2022-08-05T21:35:17.385Z,74.07
2022-08-05T21:37:47.112Z,74.98
2022-08-05T21:40:21.156Z,74.41
2022-08-05T21:42:51.652Z,73.55
2022-08-05T21:45:25.166Z,74.00
2022-08-05T21:48:09.505Z,73.83
2022-08-05T21:50:38.067Z,73.63
2022-08-05T21:53:16.694Z,74.10
2022-08-05T21:56:05.321Z,75.52
2022-08-05T21:58:36.732Z,76.78
2022-08-05T22:01:10.791Z,77.51
2022-08-05T22:03:52.405Z,76.24
2022-08-05T22:06:37.060Z,75.58
2022-08-05T22:09:15.145Z,74.95
2022-08-05T22:11:48.664Z,75.03
2022-08-05T22:14:33.443Z,74.55
2022-08-05T22:17:07.002Z,74.64
2022-08-05T22:20:02.541Z,74.99
2022-08-05T22:22:27.117Z,75.94
2022-08-05T22:25:21.152Z,75.90
2022-08-05T22:28:10.958Z,75.66
2022-08-05T22:30:55.818Z,75.85
2022-08-05T22:33:57.820Z,75.72
2022-08-05T22:36:15.023Z,75.26
2022-08-05T22:38:48.170Z,74.02
2022-08-05T22:42:04.611Z,73.82
2022-08-05T22:44:07.996Z,73.61
2022-08-05T22:46:39.635Z,73.24
2022-08-05T22:49:23.347Z,72.83
2022-08-05T22:52:04.740Z,73.63
2022-08-05T22:54:35.997Z,73.37
2022-08-05T22:57:05.795Z,72.69
2022-08-05T22:59:46.443Z,73.25
2022-08-05T23:02:29.176Z,73.65
2022-08-05T23:04:58.317Z,75.35
2022-08-05T23:07:30.509Z,75.81
2022-08-05T23:10:02.072Z,75.94
2022-08-05T23:12:32.366Z,76.01
2022-08-05T23:15:01.462Z,76.39
2022-08-05T23:17:34.328Z,76.94
2022-08-05T23:20:16.472Z,76.83
2022-08-05T23:22:47.290Z,76.76
2022-08-05T23:25:50.073Z,77.32
2022-08-05T23:28:07.173Z,77.36
2022-08-05T23:30:40.034Z,77.12
2022-08-05T23:33:16.172Z,77.07
2022-08-05T23:35:55.100Z,77.53
2022-08-05T23:38:26.066Z,78.24
2022-08-05T23:40:54.910Z,78.23
2022-08-05T23:43:49.656Z,76.88
2022-08-05T23:46:20.852Z,76.81
2022-08-05T23:49:00.490Z,76.44
2022-08-05T23:51:53.515Z,76.98
2022-08-05T23:54:26.074Z,77.62
2022-08-05T23:56:55.456Z,77.96
2022-08-05T23:59:27.847Z,78.62
